Time;durP1;ratioP1;P1;durP2;ratioP2;P2;SDS_P1;SDS_P2;PMS_P1;PMS_P2;Temp;Humidity;BMP_temperature;BMP_pressure;BME280_temperature;BME280_humidity;BME280_pressure;Samples;Min_cycle;Max_cycle;Signal;HPM_P1;HPM_P2
2021/03/08 00:05:00;;;;;;;85.68;39.92;;;;;;;-0.62;100.00;94881.88;10282789;28;20034;-74
2021/03/08 00:10:00;;;;;;;97.27;38.67;;;;;;;-0.67;100.00;94886.13;10281868;28;20874;-74
2021/03/08 00:15:00;;;;;;;92.80;42.45;;;;;;;-0.67;100.00;94878.19;10281814;28;20027;-74
2021/03/08 00:20:03;;;;;;;91.68;42.40;;;;;;;-0.58;100.00;94885.75;10281541;28;20027;-74
2021/03/08 00:25:09;;;;;;;93.32;44.40;;;;;;;-0.78;100.00;94879.59;10278705;28;20030;-74
2021/03/08 00:30:11;;;;;;;90.80;44.40;;;;;;;-0.98;100.00;94875.06;10280726;28;20062;-74
2021/03/08 00:35:13;;;;;;;92.85;44.03;;;;;;;-1.00;100.00;94866.53;10281539;28;20097;-74
2021/03/08 00:40:18;;;;;;;89.00;43.60;;;;;;;-1.01;100.00;94867.53;10278609;28;20418;-74
2021/03/08 00:45:21;;;;;;;87.60;46.13;;;;;;;-0.90;100.00;94850.34;10281036;28;20046;-74
2021/03/08 00:50:25;;;;;;;86.75;45.50;;;;;;;-0.90;100.00;94861.69;10280391;28;20065;-74
2021/03/08 00:55:26;;;;;;;95.65;43.97;;;;;;;-0.87;100.00;94861.28;10286901;28;20030;-74
2021/03/08 01:00:28;;;;;;;92.90;48.10;;;;;;;-0.78;100.00;94853.19;10280821;28;20034;-75
2021/03/08 01:05:28;;;;;;;83.53;46.17;;;;;;;-0.79;100.00;94843.69;10279139;28;20164;-74
2021/03/08 01:10:30;;;;;;;97.47;44.60;;;;;;;-0.77;100.00;94839.00;10278925;28;20046;-75
2021/03/08 01:15:30;;;;;;;90.90;42.92;;;;;;;-0.73;100.00;94829.66;10280218;28;20982;-75
2021/03/08 01:20:31;;;;;;;91.95;44.65;;;;;;;-0.65;100.00;94821.56;10280434;28;20026;-75
2021/03/08 01:25:31;;;;;;;85.82;43.17;;;;;;;-0.68;100.00;94814.06;10280547;28;20089;-75
2021/03/08 01:30:37;;;;;;;89.45;43.65;;;;;;;-0.73;100.00;94808.56;10279820;28;20042;-75
2021/03/08 01:35:39;;;;;;;87.38;42.75;;;;;;;-0.70;100.00;94818.72;10291937;28;20403;-75
2021/03/08 01:40:41;;;;;;;92.45;45.38;;;;;;;-0.69;100.00;94807.16;10278299;28;20063;-75
2021/03/08 01:45:41;;;;;;;97.03;38.50;;;;;;;-0.79;100.00;94810.19;10279028;28;20035;-75
2021/03/08 01:50:44;;;;;;;81.28;41.45;;;;;;;-1.06;100.00;94802.22;10280850;28;20027;-75
2021/03/08 01:55:45;;;;;;;82.82;42.08;;;;;;;-1.00;100.00;94800.59;10287533;28;20027;-75
2021/03/08 02:00:47;;;;;;;76.10;41.22;;;;;;;-0.96;100.00;94788.63;10285858;28;20031;-75
2021/03/08 02:05:47;;;;;;;94.68;41.60;;;;;;;-0.98;100.00;94780.09;10320958;28;20049;-74
2021/03/08 02:10:49;;;;;;;86.70;40.63;;;;;;;-1.03;100.00;94777.25;10327188;28;20034;-74
2021/03/08 02:15:56;;;;;;;84.00;39.80;;;;;;;-1.22;100.00;94779.63;10327413;28;20034;-75
2021/03/08 02:21:15;;;;;;;91.75;44.47;;;;;;;-1.28;100.00;94775.16;10326913;28;20026;-75
2021/03/08 02:26:21;;;;;;;91.90;42.55;;;;;;;-1.27;100.00;94770.69;10326597;28;20084;-75
2021/03/08 02:31:24;;;;;;;87.10;42.63;;;;;;;-1.35;100.00;94770.88;10325718;28;20474;-75
2021/03/08 02:36:28;;;;;;;87.43;43.35;;;;;;;-1.28;100.00;94763.81;10326203;28;20517;-75
2021/03/08 02:41:31;;;;;;;98.32;41.25;;;;;;;-1.28;100.00;94766.44;10326414;28;20050;-74
2021/03/08 02:46:36;;;;;;;93.03;42.20;;;;;;;-1.33;100.00;94760.94;10326105;28;20030;-74
2021/03/08 02:51:42;;;;;;;86.75;42.03;;;;;;;-1.39;100.00;94770.47;10326071;28;20027;-74
2021/03/08 02:56:46;;;;;;;81.72;43.53;;;;;;;-1.53;100.00;94766.97;10324856;28;20545;-74
2021/03/08 03:01:47;;;;;;;87.93;40.80;;;;;;;-1.52;100.00;94759.88;10323112;28;20027;-74
2021/03/08 03:06:50;;;;;;;94.03;42.85;;;;;;;-1.56;100.00;94762.91;10322658;28;20030;-74
2021/03/08 03:11:57;;;;;;;91.18;42.45;;;;;;;-1.66;100.00;94761.63;10324811;28;20031;-75
2021/03/08 03:17:02;;;;;;;91.28;43.35;;;;;;;-1.64;100.00;94759.63;10323585;28;20026;-75
2021/03/08 03:22:04;;;;;;;90.40;41.65;;;;;;;-1.56;100.00;94751.56;10325170;28;20027;-74
2021/03/08 03:27:06;;;;;;;85.60;43.90;;;;;;;-1.69;100.00;94751.50;10323776;28;20033;-75
2021/03/08 03:32:07;;;;;;;86.47;42.20;;;;;;;-1.62;100.00;94754.97;10324095;28;20030;-75
2021/03/08 03:37:08;;;;;;;84.72;43.38;;;;;;;-1.48;100.00;94751.38;10323309;28;20030;-75
2021/03/08 03:42:09;;;;;;;84.90;40.97;;;;;;;-1.54;100.00;94752.16;10323474;28;20719;-75
2021/03/08 03:47:13;;;;;;;85.00;43.70;;;;;;;-1.59;100.00;94744.03;10323930;28;20030;-75
2021/03/08 03:52:14;;;;;;;88.38;42.70;;;;;;;-1.55;100.00;94746.09;10323776;28;20489;-75
2021/03/08 03:57:15;;;;;;;95.15;43.95;;;;;;;-1.55;100.00;94751.34;10322638;28;20026;-75
2021/03/08 04:02:22;;;;;;;83.38;42.03;;;;;;;-1.57;100.00;94740.19;10323264;28;20054;-75
2021/03/08 04:07:23;;;;;;;87.60;40.90;;;;;;;-1.55;100.00;94739.97;10314749;28;20027;-75
2021/03/08 04:12:31;;;;;;;88.03;38.85;;;;;;;-1.57;100.00;94748.09;10282438;28;20122;-75
2021/03/08 04:17:36;;;;;;;79.72;40.78;;;;;;;-1.64;100.00;94752.53;10281542;28;20037;-75
2021/03/08 04:22:38;;;;;;;90.50;39.20;;;;;;;-1.67;100.00;94754.75;10282210;28;20034;-75
2021/03/08 04:27:39;;;;;;;85.88;42.55;;;;;;;-1.70;100.00;94747.22;10282005;28;20033;-75
2021/03/08 04:32:41;;;;;;;83.72;43.83;;;;;;;-1.79;100.00;94749.22;10281817;28;20042;-75
2021/03/08 04:37:41;;;;;;;86.38;41.30;;;;;;;-1.84;100.00;94747.19;10281310;28;20065;-74
2021/03/08 04:42:43;;;;;;;85.70;43.72;;;;;;;-1.85;100.00;94744.75;10279532;28;20154;-74
2021/03/08 04:47:45;;;;;;;80.80;41.88;;;;;;;-2.04;100.00;94760.22;10279951;28;20098;-74
2021/03/08 04:52:47;;;;;;;86.50;47.03;;;;;;;-2.13;100.00;94762.22;10280943;28;20429;-74
2021/03/08 04:57:48;;;;;;;96.15;47.70;;;;;;;-2.17;100.00;94760.97;10281107;28;20173;-74
2021/03/08 05:02:51;;;;;;;88.30;45.10;;;;;;;-2.04;100.00;94762.84;10281391;28;20516;-74
2021/03/08 05:07:57;;;;;;;91.28;42.50;;;;;;;-1.96;100.00;94767.97;10286147;28;20038;-74
2021/03/08 05:12:58;;;;;;;80.22;40.80;;;;;;;-1.77;100.00;94765.66;10279827;28;20055;-74
2021/03/08 05:18:00;;;;;;;76.32;34.22;;;;;;;-1.73;100.00;94767.69;10281960;28;20050;-73
2021/03/08 05:23:02;;;;;;;66.55;24.25;;;;;;;-1.71;100.00;94762.22;10313866;28;20501;-74
2021/03/08 05:28:03;;;;;;;70.45;29.75;;;;;;;-1.58;100.00;94754.38;10324284;28;20502;-73
2021/03/08 05:33:18;;;;;;;55.75;28.15;;;;;;;-1.12;100.00;94744.16;10323044;28;20035;-74
2021/03/08 05:38:24;;;;;;;55.67;28.25;;;;;;;-0.53;100.00;94742.56;10318890;28;20474;-74
2021/03/08 05:43:29;;;;;;;59.33;26.98;;;;;;;-0.01;100.00;94748.03;10321252;28;20458;-74
2021/03/08 05:48:48;;;;;;;55.25;25.50;;;;;;;0.45;100.00;94744.41;10308728;28;20042;-74
2021/03/08 05:54:00;;;;;;;47.38;22.80;;;;;;;1.03;100.00;94755.94;10283916;28;20042;-74
2021/03/08 05:59:46;;;;;;;55.38;24.13;;;;;;;1.45;100.00;94761.56;10283310;28;20031;-74
2021/03/08 06:05:26;;;;;;;47.33;22.35;;;;;;;1.83;100.00;94765.13;10284621;28;20055;-74
2021/03/08 06:10:32;;;;;;;61.92;25.48;;;;;;;2.22;100.00;94755.19;10285793;28;20070;-74
2021/03/08 06:15:35;;;;;;;51.67;23.77;;;;;;;2.87;100.00;94751.94;10286431;28;20034;-75
2021/03/08 06:20:36;;;;;;;49.92;26.65;;;;;;;3.19;95.67;94765.00;10286404;28;20121;-75
2021/03/08 06:25:39;;;;;;;48.38;22.58;;;;;;;3.55;91.39;94763.25;10285719;28;20109;-75
2021/03/08 06:30:40;;;;;;;48.25;24.20;;;;;;;3.96;88.23;94759.94;10295788;28;20030;-75
2021/03/08 06:35:40;;;;;;;54.13;23.63;;;;;;;4.57;85.50;94753.28;10325626;28;20030;-74
2021/03/08 06:40:40;;;;;;;49.15;24.55;;;;;;;5.22;78.86;94753.19;10323587;28;20313;-74
2021/03/08 06:45:41;;;;;;;51.40;23.17;;;;;;;6.27;72.70;94744.78;10324384;28;20038;-74
2021/03/08 06:50:41;;;;;;;48.42;23.25;;;;;;;7.38;64.00;94739.41;10325310;28;20478;-74
2021/03/08 06:55:42;;;;;;;43.47;22.33;;;;;;;8.53;54.67;94746.19;10322966;28;20046;-74
2021/03/08 07:00:42;;;;;;;53.05;26.40;;;;;;;9.57;52.33;94738.25;10323058;28;20858;-75
2021/03/08 07:05:43;;;;;;;61.50;27.20;;;;;;;9.81;49.09;94735.03;10323580;28;20121;-74
2021/03/08 07:10:43;;;;;;;54.38;26.60;;;;;;;9.43;48.36;94730.97;10325190;28;20278;-74
2021/03/08 07:16:00;;;;;;;52.60;25.40;;;;;;;9.29;48.18;94739.50;10322933;28;20102;-74
2021/03/08 07:21:20;;;;;;;48.65;24.80;;;;;;;9.24;51.13;94740.31;10323012;28;20038;-74
2021/03/08 07:26:23;;;;;;;56.08;28.00;;;;;;;9.92;48.64;94741.19;10324009;28;20041;-74
2021/03/08 07:31:34;;;;;;;57.65;29.13;;;;;;;10.49;46.88;94727.75;10323990;28;20038;-75
2021/03/08 07:36:58;;;;;;;58.30;25.30;;;;;;;9.92;47.72;94731.28;10324504;28;20034;-74
2021/03/08 07:42:01;;;;;;;50.35;25.05;;;;;;;9.89;47.44;94737.19;10322410;28;20113;-74
2021/03/08 07:47:18;;;;;;;48.03;24.00;;;;;;;10.56;46.00;94733.63;10323444;28;20034;-74
2021/03/08 07:52:19;;;;;;;48.77;23.07;;;;;;;10.28;46.62;94719.69;10321929;28;20141;-73
2021/03/08 07:57:20;;;;;;;41.80;23.47;;;;;;;10.18;47.26;94722.41;10323088;28;20038;-74
2021/03/08 08:02:21;;;;;;;48.30;24.85;;;;;;;9.97;46.80;94708.19;10292779;28;20046;-74
2021/03/08 08:07:22;;;;;;;61.22;25.35;;;;;;;11.16;45.87;94706.78;10283371;28;20039;-74
2021/03/08 08:12:32;;;;;;;44.33;23.85;;;;;;;12.07;43.41;94694.84;10290735;28;20022;-74
2021/03/08 08:17:40;;;;;;;45.30;24.92;;;;;;;11.79;43.19;94695.34;10322152;28;20030;-74
2021/03/08 08:22:52;;;;;;;48.28;22.20;;;;;;;11.26;44.42;94704.03;10322619;28;20102;-74
2021/03/08 08:27:54;;;;;;;50.13;24.05;;;;;;;11.05;44.94;94697.97;10324213;28;20497;-75
2021/03/08 08:32:56;;;;;;;45.45;21.73;;;;;;;11.90;43.86;94690.69;10318134;28;20084;-74
2021/03/08 08:38:14;;;;;;;47.28;21.58;;;;;;;13.37;40.63;94681.53;10322160;28;20054;-74
2021/03/08 08:43:14;;;;;;;45.90;20.87;;;;;;;14.36;38.48;94666.97;10320638;28;20545;-74
2021/03/08 08:48:16;;;;;;;37.28;19.77;;;;;;;15.76;35.09;94661.38;10322138;28;20049;-75
2021/03/08 08:53:34;;;;;;;36.67;19.90;;;;;;;16.15;35.06;94659.91;10321135;28;20073;-74
2021/03/08 08:58:52;;;;;;;;;;;;;;;15.65;35.11;94655.41;10321807;28;20058;-74
2021/03/08 09:04:07;;;;;;;37.28;19.52;;;;;;;13.88;37.37;94651.03;10320815;28;20004;-75
2021/03/08 09:09:08;;;;;;;39.63;22.67;;;;;;;13.39;39.64;94655.06;10320948;28;20049;-75
2021/03/08 09:14:22;;;;;;;57.10;23.27;;;;;;;11.85;41.09;94654.91;10320511;28;20096;-76
2021/03/08 09:19:22;;;;;;;45.92;21.92;;;;;;;11.16;43.24;94657.56;10321563;28;20091;-76
2021/03/08 09:24:33;;;;;;;47.60;23.17;;;;;;;11.17;44.76;94641.13;10321370;28;20030;-75
2021/03/08 09:29:33;;;;;;;44.80;21.75;;;;;;;11.49;43.50;94639.06;10320438;28;20557;-75
2021/03/08 09:34:34;;;;;;;40.28;21.48;;;;;;;11.95;42.42;94626.00;10319085;28;20034;-74
2021/03/08 09:39:47;;;;;;;36.67;20.03;;;;;;;12.44;41.21;94626.03;10319709;28;20473;-74
2021/03/08 09:44:49;;;;;;;41.88;20.83;;;;;;;12.91;40.68;94618.19;10319898;28;20804;-75
2021/03/08 09:49:54;;;;;;;48.53;22.55;;;;;;;12.86;41.04;94604.78;10317873;28;20054;-75
2021/03/08 09:54:54;;;;;;;38.35;20.60;;;;;;;12.99;40.82;94610.25;10318465;28;20862;-74
2021/03/08 09:59:56;;;;;;;35.27;19.57;;;;;;;13.51;39.11;94598.72;10319792;28;20089;-75
2021/03/08 10:04:57;;;;;;;42.65;19.05;;;;;;;14.38;38.48;94588.25;10312741;28;20034;-74
2021/03/08 10:10:14;;;;;;;42.33;17.63;;;;;;;15.23;37.17;94577.00;10320492;28;20680;-73
2021/03/08 10:15:15;;;;;;;39.10;17.98;;;;;;;17.10;33.07;94565.59;10322868;28;20555;-73
2021/03/08 10:20:15;;;;;;;36.17;18.40;;;;;;;19.87;29.97;94556.81;10325427;28;20030;-74
2021/03/08 10:25:27;;;;;;;29.70;15.90;;;;;;;22.48;25.86;94542.28;10316563;28;20433;-74
2021/03/08 10:30:30;;;;;;;30.17;16.15;;;;;;;23.87;24.56;94534.72;10326622;28;20208;-74
2021/03/08 10:35:42;;;;;;;34.35;17.73;;;;;;;23.77;24.37;94522.38;10294204;28;20062;-74
2021/03/08 10:40:43;;;;;;;30.95;16.85;;;;;;;24.03;24.03;94529.97;10311082;28;20054;-73
2021/03/08 10:45:48;;;;;;;36.60;17.40;;;;;;;24.36;23.37;94525.84;10306986;28;20573;-74
2021/03/08 10:50:51;;;;;;;33.55;17.67;;;;;;;25.41;23.03;94514.44;10303603;28;20047;-74
2021/03/08 10:55:54;;;;;;;39.40;19.60;;;;;;;24.62;23.76;94501.53;10303066;28;20109;-73
2021/03/08 11:01:06;;;;;;;38.78;18.02;;;;;;;25.69;22.26;94496.69;10313826;28;20026;-73
2021/03/08 11:06:11;;;;;;;29.55;17.60;;;;;;;25.65;22.38;94489.53;10301202;28;20113;-73
2021/03/08 11:11:19;;;;;;;29.42;15.48;;;;;;;26.35;22.20;94476.88;10303995;28;20022;-73
2021/03/08 11:16:20;;;;;;;31.88;13.88;;;;;;;25.68;22.27;94453.03;10314418;28;20057;-73
2021/03/08 11:21:28;;;;;;;32.20;13.75;;;;;;;24.16;22.92;94450.94;10324338;28;20022;-74
2021/03/08 11:26:29;;;;;;;25.60;13.05;;;;;;;26.00;21.61;94433.28;10322280;28;20029;-74
2021/03/08 11:31:29;;;;;;;22.50;11.00;;;;;;;26.67;20.64;94421.22;10321532;28;20030;-74
2021/03/08 11:36:34;;;;;;;21.07;10.93;;;;;;;25.57;20.97;94411.63;10321171;28;20106;-74
2021/03/08 11:41:42;;;;;;;19.77;11.18;;;;;;;24.51;22.40;94403.22;10321641;28;20425;-74
2021/03/08 11:46:43;;;;;;;21.42;10.70;;;;;;;22.01;25.07;94402.31;10322812;28;20026;-73
2021/03/08 11:51:43;;;;;;;8.80;4.37;;;;;;;16.59;28.43;94405.91;10322234;28;20037;-73
2021/03/08 11:56:44;;;;;;;9.23;4.38;;;;;;;14.95;29.99;94408.53;10321986;28;20030;-73
2021/03/08 12:01:45;;;;;;;6.95;4.03;;;;;;;14.31;30.05;94393.22;10322723;28;20033;-73
2021/03/08 12:06:45;;;;;;;6.65;3.90;;;;;;;14.16;31.52;94380.84;10322960;28;20497;-73
2021/03/08 12:11:47;;;;;;;10.52;4.78;;;;;;;14.23;30.72;94383.13;10297613;28;20027;-73
2021/03/08 12:16:47;;;;;;;9.95;4.82;;;;;;;14.85;29.34;94379.81;10282008;28;20030;-73
2021/03/08 12:21:48;;;;;;;10.60;3.90;;;;;;;15.19;30.16;94359.44;10282097;28;20501;-74
2021/03/08 12:26:49;;;;;;;7.25;3.83;;;;;;;15.25;28.32;94360.94;10281587;28;20076;-74
2021/03/08 12:31:49;;;;;;;6.03;3.83;;;;;;;15.12;28.54;94356.41;10281596;28;20245;-74
2021/03/08 12:36:50;;;;;;;9.55;3.70;;;;;;;15.13;27.98;94361.50;10280934;28;20109;-75
2021/03/08 12:41:50;;;;;;;8.30;3.50;;;;;;;14.82;28.20;94362.28;10281178;28;20051;-74
2021/03/08 12:46:50;;;;;;;10.07;3.77;;;;;;;14.72;28.46;94359.84;10281555;28;20379;-74
2021/03/08 12:51:51;;;;;;;13.53;3.50;;;;;;;14.58;29.45;94365.28;10281671;28;20273;-74
2021/03/08 12:56:52;;;;;;;5.78;3.28;;;;;;;14.00;30.40;94373.06;10281412;28;20843;-74
2021/03/08 13:01:52;;;;;;;5.82;3.17;;;;;;;14.03;30.07;94366.25;10281170;28;20027;-74
2021/03/08 13:06:53;;;;;;;6.15;4.00;;;;;;;13.84;30.72;94372.59;10281070;28;20031;-74
2021/03/08 13:11:53;;;;;;;7.68;3.30;;;;;;;13.26;30.47;94360.50;10280169;28;20019;-73
2021/03/08 13:16:54;;;;;;;9.97;3.40;;;;;;;12.40;31.91;94366.28;10280537;28;20026;-73
2021/03/08 13:21:54;;;;;;;5.38;3.25;;;;;;;12.18;32.83;94381.19;10279720;28;20289;-73
2021/03/08 13:26:54;;;;;;;7.40;3.10;;;;;;;12.26;33.42;94377.78;10280814;28;20039;-73
2021/03/08 13:31:55;;;;;;;11.63;4.40;;;;;;;12.62;32.78;94382.63;10295336;28;20023;-73
2021/03/08 13:36:55;;;;;;;11.73;4.60;;;;;;;12.52;32.21;94396.28;10280590;28;20066;-73
2021/03/08 13:41:56;;;;;;;11.45;3.83;;;;;;;12.56;32.69;94383.00;10280301;28;20054;-73
2021/03/08 13:46:56;;;;;;;9.15;4.18;;;;;;;12.67;32.40;94373.69;10281062;28;20225;-73
2021/03/08 13:51:56;;;;;;;9.77;3.97;;;;;;;12.56;32.43;94377.63;10287905;28;20033;-73
2021/03/08 13:56:57;;;;;;;7.20;3.97;;;;;;;12.48;32.07;94379.91;10287875;28;20107;-73
2021/03/08 14:01:57;;;;;;;7.10;3.60;;;;;;;11.86;32.67;94381.84;10314606;28;20807;-73
2021/03/08 14:06:58;;;;;;;12.53;5.33;;;;;;;11.75;33.59;94381.19;10326511;28;20030;-77
2021/03/08 14:11:58;;;;;;;13.70;4.20;;;;;;;11.74;33.20;94380.38;10327057;28;20290;-77
2021/03/08 14:16:59;;;;;;;7.10;4.00;;;;;;;11.49;33.33;94383.41;10324791;28;20160;-77
2021/03/08 14:22:00;;;;;;;10.50;4.40;;;;;;;11.54;33.34;94394.91;10309007;28;20290;-77
2021/03/08 14:27:00;;;;;;;15.60;4.95;;;;;;;11.43;33.33;94386.13;10285308;28;20035;-77
2021/03/08 14:32:01;;;;;;;9.47;3.97;;;;;;;11.56;33.47;94394.59;10287402;28;20026;-77
2021/03/08 14:37:01;;;;;;;11.90;4.50;;;;;;;11.57;33.30;94397.00;10325466;28;20285;-77
2021/03/08 14:42:02;;;;;;;6.70;4.30;;;;;;;11.59;33.41;94396.72;10297760;28;20413;-78
2021/03/08 14:47:02;;;;;;;8.30;4.20;;;;;;;11.37;33.60;94402.63;10324503;28;20015;-77
2021/03/08 14:52:03;;;;;;;13.40;4.65;;;;;;;11.34;33.21;94401.28;10325171;28;20785;-77
2021/03/08 14:57:03;;;;;;;8.63;4.32;;;;;;;11.32;33.48;94405.38;10324507;28;20036;-78
2021/03/08 15:02:04;;;;;;;8.68;3.78;;;;;;;11.21;33.19;94402.00;10325816;28;20576;-77
2021/03/08 15:07:04;;;;;;;8.50;4.15;;;;;;;11.12;34.02;94407.16;10325626;28;20478;-78
2021/03/08 15:12:06;;;;;;;12.30;4.82;;;;;;;10.87;33.66;94411.72;10300573;28;20106;-78
2021/03/08 15:17:06;;;;;;;13.85;5.22;;;;;;;10.66;34.50;94408.41;10284898;28;20150;-78
2021/03/08 15:22:07;;;;;;;10.43;5.33;;;;;;;10.50;35.09;94413.09;10284447;28;20386;-78
2021/03/08 15:27:09;;;;;;;16.08;6.32;;;;;;;10.32;35.43;94408.38;10283740;28;20262;-78
2021/03/08 15:32:10;;;;;;;8.43;5.25;;;;;;;10.00;35.08;94415.00;10284522;28;20479;-78
2021/03/08 15:37:11;;;;;;;15.30;5.63;;;;;;;9.94;35.65;94416.91;10318280;28;20052;-78
2021/03/08 15:42:11;;;;;;;8.60;5.47;;;;;;;9.89;34.94;94420.44;10310667;28;20054;-78
2021/03/08 15:47:11;;;;;;;12.03;6.07;;;;;;;9.60;36.14;94428.34;10322648;28;20042;-77
2021/03/08 15:52:12;;;;;;;21.37;5.67;;;;;;;9.56;35.87;94433.44;10321808;28;20384;-78
2021/03/08 15:57:12;;;;;;;16.92;6.57;;;;;;;9.51;35.96;94441.50;10321517;28;20487;-78
2021/03/08 16:02:13;;;;;;;14.02;6.78;;;;;;;9.34;35.58;94447.19;10321732;28;20532;-78
2021/03/08 16:07:14;;;;;;;12.73;6.65;;;;;;;9.26;35.80;94445.06;10321186;28;20427;-76
2021/03/08 16:12:14;;;;;;;15.63;6.95;;;;;;;9.09;36.37;94464.13;10322044;28;20018;-78
2021/03/08 16:17:15;;;;;;;16.60;7.15;;;;;;;9.04;36.43;94464.13;10285000;28;20485;-78
2021/03/08 16:22:16;;;;;;;15.43;7.63;;;;;;;8.92;36.79;94475.16;10282119;28;20035;-78
2021/03/08 16:27:16;;;;;;;13.23;6.68;;;;;;;8.81;36.00;94485.06;10317771;28;20967;-78
2021/03/08 16:32:16;;;;;;;14.43;7.80;;;;;;;8.82;36.68;94493.88;10320842;28;20030;-79
2021/03/08 16:37:17;;;;;;;21.55;7.35;;;;;;;8.56;35.06;94491.19;10321229;28;20045;-78
2021/03/08 16:42:17;;;;;;;16.73;7.17;;;;;;;8.21;35.51;94500.75;10319280;28;20108;-79
2021/03/08 16:47:18;;;;;;;19.38;9.32;;;;;;;8.00;35.68;94514.06;10320947;28;20789;-79
2021/03/08 16:52:19;;;;;;;18.52;8.65;;;;;;;7.80;35.53;94514.78;10319972;28;20176;-79
2021/03/08 16:57:21;;;;;;;18.05;9.00;;;;;;;7.77;36.47;94523.34;10310521;28;20037;-78
2021/03/08 17:02:22;;;;;;;17.45;8.90;;;;;;;7.69;35.90;94538.00;10289856;28;20031;-77
2021/03/08 17:07:22;;;;;;;15.90;8.15;;;;;;;7.68;36.66;94546.28;10280233;28;20041;-77
2021/03/08 17:12:23;;;;;;;22.97;10.60;;;;;;;7.48;36.84;94552.31;10283247;28;20413;-77
2021/03/08 17:17:23;;;;;;;20.08;9.25;;;;;;;7.41;36.01;94551.72;10304166;28;20282;-77
2021/03/08 17:22:24;;;;;;;20.55;10.02;;;;;;;7.18;35.82;94559.06;10321316;28;20034;-78
2021/03/08 17:27:26;;;;;;;23.65;11.80;;;;;;;7.06;36.75;94569.13;10329047;28;20636;-77
2021/03/08 17:32:26;;;;;;;18.98;11.13;;;;;;;6.85;36.90;94576.94;10324333;28;20145;-77
2021/03/08 17:37:27;;;;;;;27.08;11.07;;;;;;;6.71;37.14;94575.75;10327426;28;20038;-77
2021/03/08 17:42:28;;;;;;;26.53;11.17;;;;;;;6.70;36.96;94585.66;10327881;28;20656;-77
2021/03/08 17:47:29;;;;;;;24.63;12.02;;;;;;;6.53;37.64;94596.44;10312177;28;20290;-77
2021/03/08 17:52:29;;;;;;;26.85;12.13;;;;;;;6.49;36.89;94596.09;10295792;28;20658;-77
2021/03/08 17:57:29;;;;;;;29.67;12.43;;;;;;;6.40;36.11;94596.81;10322603;28;20034;-77
2021/03/08 18:02:30;;;;;;;24.65;11.23;;;;;;;6.38;35.32;94599.72;10307150;28;20301;-77
2021/03/08 18:07:30;;;;;;;22.87;10.73;;;;;;;6.27;35.12;94601.47;10309642;28;20122;-77
2021/03/08 18:12:33;;;;;;;23.55;11.27;;;;;;;6.16;34.35;94595.19;10306704;28;20284;-78
2021/03/08 18:17:34;;;;;;;24.60;11.38;;;;;;;6.09;34.11;94602.59;10305538;28;20446;-78
2021/03/08 18:22:35;;;;;;;22.77;11.75;;;;;;;6.12;33.68;94601.28;10303824;28;20030;-78
2021/03/08 18:27:36;;;;;;;26.05;11.35;;;;;;;6.15;33.99;94604.28;10304505;28;20189;-76
2021/03/08 18:32:38;;;;;;;20.88;10.23;;;;;;;6.30;34.43;94608.97;10304563;28;20024;-77
2021/03/08 18:37:39;;;;;;;24.58;11.05;;;;;;;6.38;34.00;94612.25;10302799;28;20026;-78
2021/03/08 18:42:40;;;;;;;30.63;12.23;;;;;;;6.33;34.65;94611.16;10303912;28;20047;-76
2021/03/08 18:47:43;;;;;;;35.70;15.73;;;;;;;6.32;33.47;94630.91;10299701;28;20038;-76
2021/03/08 18:52:43;;;;;;;37.00;16.77;;;;;;;6.35;34.17;94629.59;10311966;28;20030;-77
2021/03/08 18:57:43;;;;;;;40.97;16.10;;;;;;;6.26;33.86;94639.09;10304008;28;20034;-77
2021/03/08 19:02:44;;;;;;;34.57;15.47;;;;;;;6.19;34.67;94644.59;10308700;28;20548;-74
2021/03/08 19:07:45;;;;;;;35.87;15.97;;;;;;;5.89;34.63;94650.28;10310496;28;20049;-73
2021/03/08 19:12:45;;;;;;;36.97;15.20;;;;;;;5.67;34.54;94652.94;10306944;28;20289;-74
2021/03/08 19:17:49;;;;;;;32.67;15.13;;;;;;;5.55;34.53;94650.34;10323877;28;20022;-74
2021/03/08 19:22:50;;;;;;;28.35;12.50;;;;;;;5.46;33.60;94652.63;10319045;28;20397;-74
2021/03/08 19:27:50;;;;;;;26.88;11.00;;;;;;;5.43;32.11;94655.78;10315221;28;20197;-74
2021/03/08 19:32:51;;;;;;;28.80;10.68;;;;;;;5.40;32.18;94654.41;10306028;28;20023;-74
2021/03/08 19:37:52;;;;;;;22.65;11.48;;;;;;;5.42;32.54;94654.94;10288725;28;20038;-74
2021/03/08 19:42:52;;;;;;;27.25;12.32;;;;;;;5.41;32.54;94657.84;10307843;28;20526;-73
2021/03/08 19:47:53;;;;;;;29.37;13.83;;;;;;;5.24;33.21;94661.31;10324234;28;20034;-74
2021/03/08 19:52:53;;;;;;;36.05;14.95;;;;;;;5.17;33.22;94665.19;10324332;28;20300;-73
2021/03/08 19:57:53;;;;;;;30.33;13.77;;;;;;;5.06;33.93;94669.53;10324516;28;20033;-74
2021/03/08 20:02:54;;;;;;;37.20;14.75;;;;;;;4.95;34.70;94665.88;10323553;28;20037;-74
2021/03/08 20:07:54;;;;;;;34.13;14.37;;;;;;;4.84;34.88;94674.75;10323023;28;20042;-74
2021/03/08 20:12:55;;;;;;;28.38;13.68;;;;;;;4.83;33.62;94681.09;10324845;28;20270;-74
2021/03/08 20:17:55;;;;;;;31.07;13.70;;;;;;;4.68;34.25;94677.13;10323931;28;20485;-73
2021/03/08 20:22:55;;;;;;;28.10;14.20;;;;;;;4.64;33.54;94673.31;10323817;28;20680;-74
2021/03/08 20:27:57;;;;;;;27.23;12.60;;;;;;;4.66;33.83;94683.72;10318266;28;20069;-74
2021/03/08 20:32:58;;;;;;;28.13;10.73;;;;;;;4.57;33.38;94684.09;10306984;28;20264;-74
2021/03/08 20:37:59;;;;;;;28.65;11.23;;;;;;;4.54;34.41;94692.56;10314150;28;20486;-74
2021/03/08 20:42:59;;;;;;;21.67;9.77;;;;;;;4.61;33.87;94690.56;10322124;28;20034;-74
2021/03/08 20:48:00;;;;;;;23.13;10.00;;;;;;;4.63;33.00;94692.97;10291865;28;20138;-75
2021/03/08 20:53:02;;;;;;;22.50;9.63;;;;;;;4.66;34.09;94691.72;10301443;28;20273;-73
2021/03/08 20:58:02;;;;;;;17.38;8.73;;;;;;;4.58;34.69;94698.22;10299979;28;20321;-72
2021/03/08 21:03:02;;;;;;;17.52;9.45;;;;;;;4.54;34.60;94699.75;10320630;28;20948;-75
2021/03/08 21:08:03;;;;;;;25.95;10.77;;;;;;;4.46;34.28;94703.56;10322420;28;20105;-75
2021/03/08 21:13:04;;;;;;;20.63;9.45;;;;;;;4.40;33.98;94707.97;10323067;28;20022;-74
2021/03/08 21:18:04;;;;;;;26.73;11.57;;;;;;;4.01;33.79;94704.22;10321135;28;20117;-74
2021/03/08 21:23:05;;;;;;;30.95;12.95;;;;;;;3.80;33.88;94708.28;10301940;28;20050;-74
2021/03/08 21:28:06;;;;;;;24.60;11.52;;;;;;;3.75;34.50;94708.97;10282177;28;20031;-73
2021/03/08 21:33:06;;;;;;;28.80;12.85;;;;;;;3.79;35.55;94719.94;10281361;28;20042;-74
2021/03/08 21:38:07;;;;;;;31.77;13.00;;;;;;;3.78;35.05;94713.00;10280076;28;20043;-74
2021/03/08 21:43:07;;;;;;;36.38;13.02;;;;;;;3.65;35.97;94714.84;10318451;28;20384;-74
2021/03/08 21:48:08;;;;;;;29.45;14.30;;;;;;;3.63;35.98;94721.44;10283401;28;20070;-74
2021/03/08 21:53:08;;;;;;;32.63;13.18;;;;;;;3.47;36.03;94729.03;10281247;28;20513;-73
2021/03/08 21:58:09;;;;;;;29.07;13.20;;;;;;;3.46;37.70;94731.91;10279942;28;20033;-73
2021/03/08 22:03:09;;;;;;;27.50;13.37;;;;;;;3.35;39.34;94728.19;10282199;28;20352;-73
2021/03/08 22:08:10;;;;;;;51.30;25.15;;;;;;;3.25;39.65;94728.75;10282824;28;20413;-74
2021/03/08 22:13:10;;;;;;;66.85;27.95;;;;;;;3.20;40.68;94733.97;10288947;28;20117;-73
2021/03/08 22:18:11;;;;;;;57.10;25.58;;;;;;;3.13;40.54;94736.69;10289437;28;20044;-73
2021/03/08 22:23:11;;;;;;;66.33;26.10;;;;;;;2.99;40.34;94732.63;10288022;28;20030;-73
2021/03/08 22:28:11;;;;;;;63.90;26.40;;;;;;;2.86;40.91;94739.72;10288162;28;20038;-73
2021/03/08 22:33:12;;;;;;;49.50;23.23;;;;;;;2.62;41.20;94741.44;10288700;28;20050;-73
2021/03/08 22:38:12;;;;;;;53.08;21.92;;;;;;;2.41;40.87;94742.72;10288695;28;20077;-73
2021/03/08 22:43:12;;;;;;;47.43;17.40;;;;;;;2.28;41.41;94740.22;10289001;28;20034;-74
2021/03/08 22:48:13;;;;;;;29.85;14.80;;;;;;;2.18;41.22;94752.16;10325192;28;20030;-74
2021/03/08 22:53:13;;;;;;;32.15;13.27;;;;;;;1.92;41.36;94745.25;10324511;28;20164;-74
2021/03/08 22:58:14;;;;;;;43.20;13.25;;;;;;;1.70;42.43;94760.75;10325584;28;20038;-74
2021/03/08 23:03:14;;;;;;;27.70;11.97;;;;;;;1.63;42.23;94768.78;10318355;28;20022;-74
2021/03/08 23:08:14;;;;;;;38.08;13.85;;;;;;;1.50;42.86;94759.06;10325852;28;20282;-74